Time;durP1;ratioP1;P1;durP2;ratioP2;P2;SDS_P1;SDS_P2;PMS_P1;PMS_P2;Temp;Humidity;BMP_temperature;BMP_pressure;BME280_temperature;BME280_humidity;BME280_pressure;Samples;Min_cycle;Max_cycle;Signal;HPM_P1;HPM_P2
2021/12/21 00:00:29;;;;;;;21.48;6.70;;;;;;;-3.25;92.47;102514.03;5007248;28;20134;-70
2021/12/21 00:02:55;;;;;;;14.23;6.60;;;;;;;-3.26;92.55;102519.94;5010900;28;20108;-70
2021/12/21 00:05:25;;;;;;;22.00;7.93;;;;;;;-3.28;92.76;102515.78;5010536;28;20104;-70
2021/12/21 00:07:53;;;;;;;16.83;7.60;;;;;;;-3.29;92.84;102507.34;5009316;28;20084;-73
2021/12/21 00:10:20;;;;;;;22.90;8.43;;;;;;;-3.32;92.84;102514.97;5037431;28;20125;-70
2021/12/21 00:13:02;;;;;;;19.98;8.25;;;;;;;-3.32;93.15;102513.28;5034561;28;20080;-72
2021/12/21 00:15:50;;;;;;;16.30;7.82;;;;;;;-3.34;93.08;102512.47;5037324;28;20030;-70
2021/12/21 00:23:45;;;;;;;19.85;8.43;;;;;;;-3.35;93.07;102504.91;5013216;28;20037;-70
2021/12/21 00:26:12;;;;;;;19.65;7.68;;;;;;;-3.36;93.16;102501.50;5009499;28;20057;-70
2021/12/21 00:28:55;;;;;;;22.23;8.00;;;;;;;-3.37;93.00;102509.13;5013999;28;20017;-70
2021/12/21 00:31:21;;;;;;;23.58;8.23;;;;;;;-3.40;93.15;102497.34;5019255;28;20115;-70
2021/12/21 00:33:47;;;;;;;20.35;8.00;;;;;;;-3.41;93.16;102502.44;5025015;28;20036;-71
2021/12/21 00:36:15;;;;;;;18.70;7.78;;;;;;;-3.42;93.28;102501.59;5009210;28;20369;-70
2021/12/21 00:38:41;;;;;;;23.63;7.80;;;;;;;-3.43;92.95;102496.56;5016444;28;20064;-70
2021/12/21 00:41:07;;;;;;;16.88;7.45;;;;;;;-3.46;93.41;102489.00;5011869;28;20057;-71
2021/12/21 00:43:33;;;;;;;20.67;7.43;;;;;;;-3.47;93.24;102489.84;5034716;28;20080;-71
2021/12/21 00:45:59;;;;;;;18.25;7.28;;;;;;;-3.50;93.25;102495.81;5010059;28;20065;-72
2021/12/21 00:48:29;;;;;;;21.92;7.35;;;;;;;-3.53;93.44;102495.88;5008630;28;20427;-70
2021/12/21 00:50:59;;;;;;;20.50;8.07;;;;;;;-3.55;93.78;102485.75;5029208;28;20128;-70
2021/12/21 00:53:26;;;;;;;16.13;7.00;;;;;;;-3.55;93.73;102492.50;5007461;28;20037;-71
2021/12/21 00:55:52;;;;;;;22.38;7.70;;;;;;;-3.57;93.76;102490.00;5009619;28;20034;-70
2021/12/21 00:58:20;;;;;;;17.05;7.38;;;;;;;-3.58;94.06;102484.94;5005749;28;20073;-70
2021/12/21 01:00:46;;;;;;;19.70;7.72;;;;;;;-3.60;93.69;102487.53;5011273;28;20073;-71
2021/12/21 01:03:14;;;;;;;19.55;8.20;;;;;;;-3.60;93.97;102486.66;5009398;28;20057;-70
2021/12/21 01:06:02;;;;;;;18.60;7.10;;;;;;;-3.62;94.03;102484.16;5010744;28;20396;-70
2021/12/21 01:08:31;;;;;;;24.25;7.53;;;;;;;-3.62;94.05;102480.78;5008420;28;20392;-70
2021/12/21 01:11:11;;;;;;;18.85;7.65;;;;;;;-3.62;94.13;102483.31;5022064;28;20053;-71
2021/12/21 01:13:57;;;;;;;17.80;7.28;;;;;;;-3.64;94.06;102487.59;5018191;28;20133;-70
2021/12/21 01:16:32;;;;;;;15.48;7.00;;;;;;;-3.67;93.91;102480.00;5008851;28;20030;-70
2021/12/21 01:19:16;;;;;;;15.73;6.88;;;;;;;-3.69;93.90;102482.59;5012065;28;20029;-70
2021/12/21 01:22:14;;;;;;;20.00;7.47;;;;;;;-3.73;93.94;102476.72;5019715;28;20574;-70
2021/12/21 01:29:35;;;;;;;19.30;7.15;;;;;;;-3.78;94.20;102475.94;5013994;28;20025;-71
2021/12/21 01:34:45;;;;;;;19.80;6.65;;;;;;;-3.80;94.56;102476.84;5012496;28;20421;-70
2021/12/21 01:37:28;;;;;;;31.45;7.63;;;;;;;-3.81;94.51;102480.22;5020716;28;20034;-70
2021/12/21 01:40:02;;;;;;;17.30;6.20;;;;;;;-3.84;94.59;102481.13;5028437;28;20561;-70
2021/12/21 01:50:25;;;;;;;16.33;6.82;;;;;;;-3.91;94.85;102469.38;5010797;28;20032;-71
2021/12/21 01:52:51;;;;;;;22.17;6.72;;;;;;;-3.93;94.97;102466.88;5017182;28;20408;-70
2021/12/21 01:55:17;;;;;;;16.25;7.43;;;;;;;-3.93;95.11;102476.19;5011623;28;20113;-70
2021/12/21 01:57:43;;;;;;;24.15;7.10;;;;;;;-3.95;95.49;102473.66;5027599;28;20112;-70
2021/12/21 02:00:10;;;;;;;21.15;7.75;;;;;;;-3.96;95.36;102468.59;5011232;28;20099;-70
2021/12/21 02:02:35;;;;;;;23.30;7.90;;;;;;;-3.98;95.35;102468.63;5012167;28;20515;-70
2021/12/21 02:05:01;;;;;;;20.38;7.93;;;;;;;-3.98;95.39;102470.31;5050920;22;20447;-75
2021/12/21 02:07:27;;;;;;;22.77;7.72;;;;;;;-3.99;95.19;102468.66;5011445;28;20132;-75
2021/12/21 02:09:52;;;;;;;23.90;8.55;;;;;;;-4.00;95.19;102464.44;5024927;28;20116;-73
2021/12/21 02:12:19;;;;;;;26.73;8.15;;;;;;;-4.01;95.30;102470.34;5012394;28;20037;-74
2021/12/21 02:14:56;;;;;;;21.00;7.15;;;;;;;-4.03;95.20;102467.00;5026102;28;20037;-75
2021/12/21 02:19:58;;;;;;;20.85;8.38;;;;;;;-4.10;95.15;102456.13;5032333;28;20411;-73
2021/12/21 02:22:27;;;;;;;19.92;7.60;;;;;;;-4.12;95.21;102453.63;5030019;28;20053;-74
2021/12/21 02:25:06;;;;;;;20.33;7.85;;;;;;;-4.13;95.21;102451.91;5043999;28;20048;-74
2021/12/21 02:27:42;;;;;;;30.00;8.15;;;;;;;-4.16;95.14;102448.63;5026805;28;20048;-74
2021/12/21 02:30:15;;;;;;;16.85;7.60;;;;;;;-4.18;95.36;102448.63;5025125;28;20129;-74
2021/12/21 02:32:40;;;;;;;;;;;;;;;-4.15;95.42;102455.34;5028424;28;20056;-75
2021/12/21 02:35:07;;;;;;;24.92;8.23;;;;;;;-4.17;95.39;102445.22;5024764;28;20371;-75
2021/12/21 02:37:32;;;;;;;19.27;8.98;;;;;;;-4.18;95.74;102442.72;5031389;28;20046;-74
2021/12/21 02:39:58;;;;;;;23.02;7.35;;;;;;;-4.19;95.42;102451.19;5026972;28;20044;-74
2021/12/21 02:42:23;;;;;;;28.10;8.88;;;;;;;-4.21;95.07;102448.66;5027659;28;20479;-74
2021/12/21 02:44:49;;;;;;;20.63;7.45;;;;;;;-4.22;95.42;102449.53;5024093;28;20033;-74
2021/12/21 02:47:15;;;;;;;31.90;8.63;;;;;;;-4.25;95.07;102446.22;5009794;28;20597;-74
2021/12/21 02:49:40;;;;;;;22.10;7.75;;;;;;;-4.31;95.37;102440.34;5037087;28;20116;-74
2021/12/21 02:52:06;;;;;;;20.65;7.75;;;;;;;-4.34;94.91;102442.09;5042181;28;20060;-74
2021/12/21 02:54:32;;;;;;;16.60;7.35;;;;;;;-4.37;94.91;102449.72;5025427;28;20120;-74
2021/12/21 02:56:57;;;;;;;17.92;7.72;;;;;;;-4.40;95.16;102450.59;5029173;28;20400;-74
2021/12/21 02:59:23;;;;;;;20.45;8.43;;;;;;;-4.40;94.73;102445.53;5031169;28;20031;-74
2021/12/21 03:01:49;;;;;;;22.85;8.05;;;;;;;-4.41;94.69;102450.63;5027045;28;20430;-74
2021/12/21 03:04:14;;;;;;;21.40;8.00;;;;;;;-4.43;94.49;102445.56;5014749;28;20060;-74
2021/12/21 03:11:58;;;;;;;20.77;8.02;;;;;;;-4.47;94.51;102449.00;5030254;28;20025;-74
2021/12/21 03:14:24;;;;;;;18.42;7.82;;;;;;;-4.46;94.68;102448.16;5026653;28;20035;-73
2021/12/21 03:16:50;;;;;;;26.88;8.45;;;;;;;-4.47;94.92;102448.16;5042122;28;20034;-74
2021/12/21 03:19:15;;;;;;;20.85;8.10;;;;;;;-4.48;94.66;102454.06;5026206;28;20507;-74
2021/12/21 03:21:41;;;;;;;20.73;8.15;;;;;;;-4.47;94.80;102453.22;5027141;28;20041;-74
2021/12/21 03:24:08;;;;;;;25.38;8.27;;;;;;;-4.49;95.01;102448.19;5033452;28;20025;-74
2021/12/21 03:26:34;;;;;;;26.05;9.07;;;;;;;-4.49;95.13;102448.19;5029593;28;20042;-74
2021/12/21 03:29:02;;;;;;;17.55;8.05;;;;;;;-4.49;95.67;102450.72;5025256;28;20400;-73
2021/12/21 03:31:27;;;;;;;21.33;8.40;;;;;;;-4.51;95.54;102447.38;5026654;28;20049;-74
2021/12/21 03:33:53;;;;;;;28.83;9.38;;;;;;;-4.51;95.85;102449.91;5026378;28;20037;-73
2021/12/21 03:36:19;;;;;;;23.70;9.20;;;;;;;-4.54;96.11;102455.84;5022249;28;20447;-74
2021/12/21 03:39:02;;;;;;;25.98;8.68;;;;;;;-4.55;95.69;102455.84;5028954;28;20238;-74
2021/12/21 03:41:28;;;;;;;21.33;7.70;;;;;;;-4.58;95.83;102436.47;5025987;28;20038;-74
2021/12/21 03:43:53;;;;;;;25.98;10.07;;;;;;;-4.59;96.00;102444.09;5027839;28;20501;-74
2021/12/21 03:46:19;;;;;;;24.60;8.85;;;;;;;-4.61;95.79;102438.22;5013343;28;20155;-74
2021/12/21 03:48:47;;;;;;;27.55;9.27;;;;;;;-4.62;96.21;102439.88;5025478;28;20064;-75
2021/12/21 03:51:15;;;;;;;23.15;8.30;;;;;;;-4.64;95.76;102434.00;5010129;28;20388;-74
2021/12/21 03:53:41;;;;;;;24.50;8.20;;;;;;;-4.66;95.85;102429.81;5027975;28;20037;-74
2021/12/21 03:58:35;;;;;;;24.67;8.63;;;;;;;-4.73;95.77;102429.06;5046117;28;20188;-74
2021/12/21 04:01:01;;;;;;;21.33;7.85;;;;;;;-4.76;95.40;102424.03;5030600;28;20079;-74
2021/12/21 04:03:26;;;;;;;18.80;7.63;;;;;;;-4.77;95.65;102418.13;5029880;28;20032;-74
2021/12/21 04:05:52;;;;;;;21.20;7.72;;;;;;;-4.78;95.55;102424.06;5051005;28;20052;-74
2021/12/21 04:08:17;;;;;;;23.85;9.00;;;;;;;-4.78;95.86;102426.59;5026951;28;20033;-74
2021/12/21 04:10:43;;;;;;;23.77;9.10;;;;;;;-4.79;95.87;102424.91;5027383;28;20037;-74
2021/12/21 04:13:10;;;;;;;27.45;9.13;;;;;;;-4.78;95.78;102423.22;5024866;28;20037;-74
2021/12/21 04:15:42;;;;;;;23.05;8.00;;;;;;;-4.79;95.99;102419.84;5040914;28;20113;-74
2021/12/21 04:18:11;;;;;;;23.25;8.68;;;;;;;-4.79;96.00;102419.84;5034602;28;20373;-73
2021/12/21 04:20:39;;;;;;;28.17;9.82;;;;;;;-4.79;95.98;102422.38;5039639;28;20503;-74
2021/12/21 04:23:04;;;;;;;22.80;9.48;;;;;;;-4.83;95.73;102417.38;5028297;28;20076;-74
2021/12/21 04:25:30;;;;;;;24.73;8.32;;;;;;;-4.85;95.62;102421.63;5029661;28;20041;-74
2021/12/21 04:27:56;;;;;;;25.20;9.55;;;;;;;-4.90;95.46;102416.59;5028013;28;20455;-74
2021/12/21 04:30:21;;;;;;;24.33;8.85;;;;;;;-4.91;95.59;102417.47;5028883;28;20456;-74
2021/12/21 04:32:47;;;;;;;24.77;8.43;;;;;;;-4.93;95.40;102419.16;5036292;28;20051;-74
2021/12/21 04:35:18;;;;;;;18.75;7.65;;;;;;;-4.94;95.44;102428.44;5032185;28;20514;-73
2021/12/21 04:37:46;;;;;;;23.98;8.15;;;;;;;-4.97;95.19;102422.56;5031638;28;20037;-74
2021/12/21 04:40:16;;;;;;;26.58;8.38;;;;;;;-5.00;95.33;102422.63;5029624;28;20040;-74
2021/12/21 04:42:41;;;;;;;27.30;9.20;;;;;;;-5.04;95.26;102419.28;5024151;28;21300;-74
2021/12/21 04:45:07;;;;;;;22.95;8.10;;;;;;;-5.06;95.25;102413.41;5033722;28;20033;-74
2021/12/21 04:47:33;;;;;;;30.58;9.43;;;;;;;-5.07;95.24;102413.41;5024809;28;20029;-74
2021/12/21 04:49:59;;;;;;;24.10;7.95;;;;;;;-5.10;95.17;102407.53;5030908;28;20091;-74
2021/12/21 04:52:24;;;;;;;18.42;7.80;;;;;;;-5.13;95.07;102414.31;5026583;28;20044;-74
2021/12/21 04:54:49;;;;;;;21.13;8.48;;;;;;;-5.15;95.10;102414.31;5026337;28;20037;-74
2021/12/21 04:57:15;;;;;;;25.75;9.27;;;;;;;-5.16;95.33;102414.31;5023999;28;20042;-74
2021/12/21 04:59:40;;;;;;;24.85;8.63;;;;;;;-5.19;95.53;102410.16;5025434;28;20450;-75
2021/12/21 05:02:06;;;;;;;24.77;8.38;;;;;;;-5.20;95.62;102412.69;5025095;28;20441;-74
2021/12/21 05:04:31;;;;;;;25.27;8.45;;;;;;;-5.22;95.38;102407.63;5032441;28;20139;-74
2021/12/21 05:06:57;;;;;;;25.58;8.63;;;;;;;-5.20;95.43;102412.69;5029862;28;20503;-74
2021/12/21 05:09:28;;;;;;;30.98;9.65;;;;;;;-5.22;95.64;102411.88;5025320;28;20041;-74
2021/12/21 05:12:02;;;;;;;26.80;9.30;;;;;;;-5.21;95.83;102416.91;5040538;28;20040;-74
2021/12/21 05:14:28;;;;;;;25.27;8.55;;;;;;;-5.20;95.48;102410.16;5028019;28;20033;-74
2021/12/21 05:16:54;;;;;;;29.08;9.55;;;;;;;-5.20;95.70;102417.75;5023061;28;20442;-72
2021/12/21 05:19:19;;;;;;;25.58;9.55;;;;;;;-5.19;95.92;102411.84;5032959;28;20067;-74
2021/12/21 05:21:45;;;;;;;30.60;9.75;;;;;;;-5.20;95.73;102410.97;5020778;28;20033;-74
2021/12/21 05:24:10;;;;;;;25.48;9.88;;;;;;;-5.21;95.62;102419.44;5037694;28;20040;-74
2021/12/21 05:26:37;;;;;;;23.15;9.38;;;;;;;-5.18;95.69;102418.56;5024141;28;20484;-75
2021/12/21 05:29:03;;;;;;;29.90;10.65;;;;;;;-5.22;95.70;102415.22;5024829;28;20048;-74
2021/12/21 05:31:29;;;;;;;28.20;10.98;;;;;;;-5.22;95.82;102409.34;5024061;28;20987;-74
2021/12/21 05:33:54;;;;;;;23.80;10.45;;;;;;;-5.24;95.73;102418.63;5025360;28;20052;-75
2021/12/21 05:36:21;;;;;;;26.10;10.05;;;;;;;-5.26;95.36;102417.81;5018645;28;20029;-75
2021/12/21 05:38:54;;;;;;;30.08;10.27;;;;;;;-5.30;95.76;102420.34;5025439;28;20101;-74
2021/12/21 05:41:28;;;;;;;27.05;10.70;;;;;;;-5.33;95.36;102422.94;5022384;28;20064;-74
2021/12/21 05:43:54;;;;;;;22.85;9.05;;;;;;;-5.35;95.38;102419.59;5024991;28;20076;-75
2021/12/21 05:46:20;;;;;;;22.50;9.27;;;;;;;-5.37;95.16;102421.28;5013968;28;20061;-74
2021/12/21 05:48:47;;;;;;;24.10;8.80;;;;;;;-5.41;95.08;102412.03;5023025;28;20087;-73
2021/12/21 05:51:12;;;;;;;25.42;9.68;;;;;;;-5.42;95.25;102423.00;5023369;28;20075;-74
2021/12/21 05:53:38;;;;;;;18.02;7.85;;;;;;;-5.45;95.10;102427.25;5022918;28;20046;-74
2021/12/21 05:56:04;;;;;;;27.73;9.60;;;;;;;-5.46;95.01;102423.91;5024275;28;20026;-73
2021/12/21 05:58:29;;;;;;;26.98;8.45;;;;;;;-5.47;94.99;102425.56;5023460;28;20040;-75
2021/12/21 06:00:55;;;;;;;29.33;9.32;;;;;;;-5.47;95.18;102428.09;5029745;28;20037;-75
2021/12/21 06:03:21;;;;;;;25.05;9.35;;;;;;;-5.47;95.32;102435.69;5024335;28;20396;-75
2021/12/21 06:05:46;;;;;;;22.05;9.27;;;;;;;-5.47;95.47;102434.84;5023625;28;20045;-74
2021/12/21 06:08:12;;;;;;;28.70;9.25;;;;;;;-5.49;95.39;102434.03;5028609;28;20061;-75
2021/12/21 06:10:41;;;;;;;22.85;8.52;;;;;;;-5.51;95.40;102441.63;5030517;28;20095;-75
2021/12/21 06:15:55;;;;;;;32.28;10.38;;;;;;;-5.52;95.45;102439.09;5022493;28;20044;-75
2021/12/21 06:25:16;;;;;;;25.83;8.10;;;;;;;-5.58;95.81;102434.94;5026021;28;20033;-75
2021/12/21 06:26:38;;;;;;;25.70;9.82;;;;;;;-5.57;95.45;102440.84;5019593;28;20052;-75
2021/12/21 06:29:04;;;;;;;29.27;9.82;;;;;;;-5.57;95.71;102438.31;5042204;28;20029;-76
2021/12/21 06:31:30;;;;;;;28.00;10.32;;;;;;;-5.58;95.40;102439.16;5021442;28;20499;-75
2021/12/21 06:33:56;;;;;;;21.45;10.13;;;;;;;-5.59;95.51;102442.56;5053331;28;20108;-75
2021/12/21 06:36:22;;;;;;;19.70;8.15;;;;;;;-5.61;95.36;102436.66;5022256;28;20033;-75
2021/12/21 06:38:47;;;;;;;25.95;9.00;;;;;;;-5.61;95.54;102440.03;5031213;28;20037;-76
2021/12/21 06:41:13;;;;;;;29.55;10.30;;;;;;;-5.61;95.33;102434.97;5033375;28;20507;-76
2021/12/21 06:43:39;;;;;;;28.60;9.23;;;;;;;-5.59;95.88;102442.56;5026831;28;20033;-76
2021/12/21 06:46:16;;;;;;;22.50;10.00;;;;;;;-5.59;95.95;102438.31;5007995;28;20167;-75
2021/12/21 06:51:36;;;;;;;32.50;10.35;;;;;;;-5.60;95.92;102438.34;5021602;28;20041;-76
2021/12/21 06:54:02;;;;;;;29.60;9.32;;;;;;;-5.62;95.77;102438.34;5009166;28;20065;-76
2021/12/21 06:56:28;;;;;;;24.05;10.38;;;;;;;-5.64;95.80;102436.69;5022851;28;20087;-76
2021/12/21 06:58:55;;;;;;;28.65;9.77;;;;;;;-5.65;95.34;102440.06;5010549;28;20029;-76
2021/12/21 07:01:26;;;;;;;27.77;9.75;;;;;;;-5.67;95.40;102440.91;5025464;28;20061;-76
2021/12/21 07:03:52;;;;;;;29.15;10.05;;;;;;;-5.70;95.49;102437.56;5024452;28;20791;-75
2021/12/21 07:06:18;;;;;;;26.65;10.10;;;;;;;-5.70;95.47;102443.47;5027814;28;20030;-75
2021/12/21 07:08:58;;;;;;;32.40;10.20;;;;;;;-5.69;95.35;102446.81;5027419;28;20048;-76
2021/12/21 07:19:17;;;;;;;32.50;11.02;;;;;;;-5.70;95.43;102453.56;5025006;28;21570;-75
2021/12/21 07:21:43;;;;;;;38.22;11.77;;;;;;;-5.72;95.45;102452.75;5026642;28;20045;-76
2021/12/21 07:24:09;;;;;;;29.85;10.55;;;;;;;-5.73;95.51;102447.69;5027535;28;20036;-76
2021/12/21 07:26:34;;;;;;;28.05;10.68;;;;;;;-5.73;95.47;102456.09;5029572;28;20458;-75
2021/12/21 07:29:00;;;;;;;32.28;10.95;;;;;;;-5.73;95.44;102453.56;5025621;28;20493;-76
2021/12/21 07:31:26;;;;;;;34.28;10.77;;;;;;;-5.72;95.54;102455.28;5023389;28;20030;-76
2021/12/21 07:33:51;;;;;;;28.75;10.48;;;;;;;-5.70;95.97;102453.56;5039775;28;20043;-75
2021/12/21 07:36:16;;;;;;;30.50;11.68;;;;;;;-5.68;95.85;102456.09;5023351;28;20025;-76
2021/12/21 07:38:42;;;;;;;26.08;11.02;;;;;;;-5.67;96.10;102453.56;5028218;28;20100;-76
2021/12/21 07:41:07;;;;;;;28.20;11.40;;;;;;;-5.67;96.20;102452.69;5021035;28;20037;-77
2021/12/21 07:43:33;;;;;;;34.08;10.88;;;;;;;-5.68;96.08;102451.88;5011805;28;20447;-77
2021/12/21 07:45:59;;;;;;;27.50;11.10;;;;;;;-5.69;96.16;102452.72;5032233;28;20065;-78
2021/12/21 07:48:25;;;;;;;26.73;10.13;;;;;;;-5.72;96.31;102450.22;5013097;28;20029;-77
2021/12/21 07:50:51;;;;;;;29.10;11.02;;;;;;;-5.72;96.03;102451.91;5030750;28;20506;-77
2021/12/21 07:53:19;;;;;;;36.70;11.73;;;;;;;-5.74;96.11;102448.56;5024691;28;20044;-77
2021/12/21 07:55:45;;;;;;;35.15;13.27;;;;;;;-5.76;95.93;102456.16;5025895;28;20045;-77
2021/12/21 07:58:11;;;;;;;40.42;12.15;;;;;;;-5.75;96.15;102462.03;5030628;28;20037;-77
2021/12/21 08:00:38;;;;;;;32.08;11.10;;;;;;;-5.73;96.05;102462.84;5026042;28;20033;-77
2021/12/21 08:03:04;;;;;;;32.25;10.93;;;;;;;-5.72;96.42;102460.31;5012231;28;20037;-77
2021/12/21 08:05:33;;;;;;;35.33;10.82;;;;;;;-5.70;96.25;102466.22;5028729;28;20402;-78
2021/12/21 08:08:14;;;;;;;28.35;10.48;;;;;;;-5.66;96.43;102472.06;5029068;28;20388;-76
2021/12/21 08:10:43;;;;;;;28.90;10.23;;;;;;;-5.62;96.33;102471.19;5021097;28;20514;-77
2021/12/21 08:13:09;;;;;;;27.80;11.18;;;;;;;-5.61;96.26;102461.91;5025836;28;20037;-77
2021/12/21 08:15:35;;;;;;;30.60;12.02;;;;;;;-5.62;96.12;102470.38;5027420;28;20037;-78
2021/12/21 08:18:00;;;;;;;28.98;10.98;;;;;;;-5.64;96.03;102462.78;5013116;28;20072;-78
2021/12/21 08:20:27;;;;;;;23.98;9.90;;;;;;;-5.63;96.21;102464.50;5031416;28;20060;-78
2021/12/21 08:22:56;;;;;;;29.55;11.43;;;;;;;-5.59;96.45;102467.84;5028489;28;20696;-78
2021/12/21 08:25:25;;;;;;;35.95;11.57;;;;;;;-5.58;96.51;102457.69;5035197;28;20037;-77
2021/12/21 08:28:01;;;;;;;35.50;11.43;;;;;;;-5.56;96.49;102461.03;5028010;28;20474;-77
2021/12/21 08:30:27;;;;;;;34.80;11.45;;;;;;;-5.55;96.87;102457.66;5043970;28;20553;-78
2021/12/21 08:32:54;;;;;;;36.53;12.85;;;;;;;-5.51;97.08;102459.31;5010726;28;20041;-78
2021/12/21 08:35:20;;;;;;;32.13;12.55;;;;;;;-5.48;96.95;102458.47;5030508;28;20465;-78
2021/12/21 08:37:51;;;;;;;28.65;11.85;;;;;;;-5.48;97.35;102459.31;5031612;28;20108;-77
2021/12/21 08:40:17;;;;;;;28.85;11.30;;;;;;;-5.47;97.15;102458.44;5033133;28;20092;-78
2021/12/21 08:42:45;;;;;;;28.50;12.10;;;;;;;-5.48;97.16;102458.47;5026343;28;20040;-77
2021/12/21 08:45:11;;;;;;;32.88;11.18;;;;;;;-5.48;97.03;102459.31;5030752;28;20087;-77
2021/12/21 08:47:37;;;;;;;41.97;13.15;;;;;;;-5.43;97.19;102460.94;5037313;28;20032;-77
2021/12/21 08:50:10;;;;;;;39.63;15.98;;;;;;;-5.36;97.47;102462.59;5020061;28;20041;-78
2021/12/21 08:52:36;;;;;;;35.20;13.50;;;;;;;-5.29;97.43;102466.75;5022725;28;20456;-78
2021/12/21 08:55:05;;;;;;;33.78;13.93;;;;;;;-5.26;97.78;102475.97;5014853;28;20565;-77
2021/12/21 08:57:31;;;;;;;36.95;11.75;;;;;;;-5.24;98.10;102475.09;5005365;28;20037;-76
2021/12/21 08:59:56;;;;;;;33.80;12.02;;;;;;;-5.21;98.27;102470.03;5012970;28;20025;-77
2021/12/21 09:02:22;;;;;;;33.10;11.82;;;;;;;-5.22;98.13;102452.34;5009162;28;20074;-78
2021/12/21 09:04:48;;;;;;;33.90;12.50;;;;;;;-5.20;98.39;102469.16;5017071;28;20030;-78
2021/12/21 09:07:13;;;;;;;35.80;13.05;;;;;;;-5.16;98.78;102475.91;5028268;28;20033;-78
2021/12/21 09:09:39;;;;;;;35.45;13.00;;;;;;;-5.12;98.60;102479.25;5024945;28;20064;-77
2021/12/21 09:12:05;;;;;;;50.50;14.13;;;;;;;-5.10;98.70;102475.84;5028139;28;20032;-77
2021/12/21 09:14:32;;;;;;;36.38;14.23;;;;;;;-5.06;98.99;102468.22;5026359;28;20099;-77
2021/12/21 09:17:02;;;;;;;35.53;14.75;;;;;;;-5.04;99.17;102459.75;5006032;28;20033;-77
2021/12/21 09:19:28;;;;;;;43.70;15.60;;;;;;;-4.99;99.09;102460.56;5028809;28;20112;-78
2021/12/21 09:21:53;;;;;;;42.60;15.75;;;;;;;-4.96;99.31;102457.16;5026774;28;20547;-77
2021/12/21 09:24:19;;;;;;;45.90;17.55;;;;;;;-4.92;99.41;102459.63;5025880;28;20034;-77
2021/12/21 09:26:44;;;;;;;46.65;17.65;;;;;;;-4.85;99.45;102455.34;5023500;28;20037;-78
2021/12/21 09:29:10;;;;;;;37.17;16.48;;;;;;;-4.75;99.50;102451.84;5031437;28;20044;-77
2021/12/21 09:31:36;;;;;;;42.40;15.82;;;;;;;-4.68;99.76;102462.75;5013574;28;20041;-77
2021/12/21 09:34:02;;;;;;;36.08;13.82;;;;;;;-4.55;100.00;102461.75;5024035;28;20038;-77
2021/12/21 09:36:29;;;;;;;38.55;14.77;;;;;;;-4.48;100.00;102454.94;5022563;28;20045;-78
2021/12/21 09:38:55;;;;;;;39.40;14.07;;;;;;;-4.36;100.00;102454.78;5019606;28;20044;-76
2021/12/21 09:41:20;;;;;;;39.85;14.88;;;;;;;-4.33;100.00;102461.50;5018814;28;20034;-77
2021/12/21 09:43:46;;;;;;;50.45;14.15;;;;;;;-4.26;100.00;102454.66;5018645;28;20119;-77
2021/12/21 09:46:12;;;;;;;38.42;13.45;;;;;;;-4.16;100.00;102451.16;5024893;28;20462;-78
2021/12/21 09:48:38;;;;;;;42.60;14.07;;;;;;;-4.11;100.00;102462.03;5004684;28;20135;-77
2021/12/21 09:51:04;;;;;;;50.85;14.07;;;;;;;-3.99;100.00;102458.53;5037586;28;20041;-76
2021/12/21 09:53:34;;;;;;;37.03;13.68;;;;;;;-3.93;100.00;102463.50;5036671;28;20033;-77
2021/12/21 09:56:02;;;;;;;29.38;13.38;;;;;;;-3.77;100.00;102459.88;5006938;28;20172;-77
2021/12/21 09:58:28;;;;;;;33.28;12.85;;;;;;;-3.55;100.00;102460.38;5003451;28;20388;-77
2021/12/21 10:00:53;;;;;;;29.02;12.73;;;;;;;-3.53;100.00;102455.28;5024205;28;20053;-76
2021/12/21 10:03:19;;;;;;;33.25;13.27;;;;;;;-3.42;100.00;102461.00;5013095;28;20075;-77
2021/12/21 10:05:45;;;;;;;32.53;13.48;;;;;;;-3.37;100.00;102450.78;5030229;28;20055;-77
2021/12/21 10:08:19;;;;;;;31.90;13.55;;;;;;;-3.33;100.00;102454.97;5024028;28;20037;-77
2021/12/21 10:10:52;;;;;;;27.85;11.88;;;;;;;-3.24;100.00;102449.75;5022421;28;20036;-76
2021/12/21 10:13:23;;;;;;;31.15;12.18;;;;;;;-3.16;100.00;102454.69;5026464;28;20037;-76
2021/12/21 10:15:52;;;;;;;33.85;13.27;;;;;;;-3.10;100.00;102446.94;5043827;28;20037;-76
2021/12/21 10:18:30;;;;;;;28.00;11.70;;;;;;;-3.07;100.00;102449.44;5007661;28;20099;-75
2021/12/21 10:20:58;;;;;;;29.88;12.13;;;;;;;-3.03;100.00;102448.50;5004572;28;20148;-76
2021/12/21 10:23:34;;;;;;;30.17;11.35;;;;;;;-3.01;100.00;102445.94;5024562;28;20033;-75
2021/12/21 10:26:01;;;;;;;25.98;10.55;;;;;;;-2.89;100.00;102449.94;5033418;28;20059;-76
2021/12/21 10:28:43;;;;;;;35.92;11.23;;;;;;;-2.82;100.00;102439.66;5027070;28;20033;-76
2021/12/21 10:31:11;;;;;;;29.92;11.20;;;;;;;-2.83;100.00;102444.75;5025354;28;20500;-76
2021/12/21 10:33:38;;;;;;;26.38;10.50;;;;;;;-2.75;100.00;102433.59;5052329;28;20068;-76
2021/12/21 10:36:06;;;;;;;24.58;10.40;;;;;;;-2.53;100.00;102434.84;5009107;28;20052;-76
2021/12/21 10:38:33;;;;;;;24.27;9.98;;;;;;;-2.45;99.73;102430.44;5026636;28;20108;-75
2021/12/21 10:41:09;;;;;;;21.92;9.13;;;;;;;-2.42;98.91;102435.47;5027565;28;20025;-76
2021/12/21 10:43:34;;;;;;;16.30;8.27;;;;;;;-2.28;97.74;102440.25;5029554;28;20111;-75
2021/12/21 10:46:00;;;;;;;19.95;8.40;;;;;;;-2.17;96.52;102428.16;5025720;28;20789;-76
2021/12/21 10:48:26;;;;;;;19.35;8.57;;;;;;;-2.20;95.60;102434.16;5028522;28;21454;-76
2021/12/21 10:50:52;;;;;;;17.67;8.88;;;;;;;-2.14;95.18;102434.88;5021457;28;20029;-76
2021/12/21 10:53:24;;;;;;;18.75;8.00;;;;;;;-2.20;95.67;102430.78;5011531;28;20156;-74
2021/12/21 10:56:06;;;;;;;19.48;8.73;;;;;;;-2.20;95.82;102423.97;4988522;28;20124;-75
2021/12/21 10:58:36;;;;;;;22.30;9.05;;;;;;;-2.18;95.82;102423.94;5004119;28;20033;-75
2021/12/21 11:01:08;;;;;;;24.50;9.02;;;;;;;-2.10;95.90;102426.31;5026332;28;20684;-74
2021/12/21 11:03:49;;;;;;;24.88;9.90;;;;;;;-2.16;95.79;102420.50;5027366;28;20610;-76
2021/12/21 11:06:26;;;;;;;18.38;9.65;;;;;;;-2.14;95.79;102419.63;5024380;28;20068;-74
2021/12/21 11:08:54;;;;;;;23.75;9.30;;;;;;;-2.04;95.86;102408.38;5028847;28;20516;-75
2021/12/21 11:11:22;;;;;;;19.27;9.15;;;;;;;-2.02;95.63;102410.00;5027368;28;20434;-76
2021/12/21 11:13:58;;;;;;;16.75;8.77;;;;;;;-1.70;94.04;102402.50;5025054;28;20068;-75
2021/12/21 11:16:31;;;;;;;16.65;7.43;;;;;;;-1.41;90.87;102391.59;5009794;28;20041;-75
2021/12/21 11:18:56;;;;;;;15.07;7.35;;;;;;;-1.42;90.13;102389.91;5027267;28;20599;-76
2021/12/21 11:21:22;;;;;;;25.67;7.07;;;;;;;-1.32;90.06;102383.69;5020135;28;20045;-74
2021/12/21 11:23:47;;;;;;;17.05;7.47;;;;;;;-1.26;89.27;102388.66;5010738;28;20496;-75
2021/12/21 11:26:13;;;;;;;15.63;6.43;;;;;;;-1.36;89.39;102384.66;5017695;28;20033;-75
2021/12/21 11:28:39;;;;;;;18.02;7.32;;;;;;;-1.27;89.82;102371.69;5032765;28;20035;-75
2021/12/21 11:31:07;;;;;;;17.20;7.07;;;;;;;-1.24;90.73;102375.88;5022658;28;20029;-75
2021/12/21 11:33:42;;;;;;;18.20;7.72;;;;;;;-1.31;91.12;102370.09;5023690;28;20559;-75
2021/12/21 11:38:54;;;;;;;19.00;6.60;;;;;;;-1.04;90.58;102360.03;5027099;28;20049;-75
2021/12/21 11:41:20;;;;;;;16.15;6.63;;;;;;;-0.89;88.52;102358.78;5030431;28;20034;-75
2021/12/21 11:43:51;;;;;;;17.83;6.25;;;;;;;-1.00;87.85;102370.13;5038430;28;20140;-75
2021/12/21 11:46:28;;;;;;;13.07;5.75;;;;;;;-1.09;88.90;102362.72;5011777;28;20075;-75
2021/12/21 11:49:09;;;;;;;12.15;5.45;;;;;;;-1.17;88.88;102367.19;5040515;28;20033;-75
2021/12/21 11:51:35;;;;;;;20.05;6.00;;;;;;;-1.13;88.14;102356.06;5023161;28;20044;-75
2021/12/21 11:54:01;;;;;;;13.45;5.00;;;;;;;-1.04;87.78;102360.03;5033245;28;20041;-76
2021/12/21 11:56:27;;;;;;;12.32;5.15;;;;;;;-0.81;85.87;102351.75;5013244;28;20488;-75
2021/12/21 11:58:55;;;;;;;12.35;4.60;;;;;;;-0.66;84.37;102347.91;5024859;28;20161;-75
2021/12/21 12:01:26;;;;;;;11.55;4.95;;;;;;;-0.88;85.45;102346.00;5020031;28;20029;-76
2021/12/21 12:04:12;;;;;;;15.95;4.82;;;;;;;-0.72;85.69;102343.00;5035629;28;20549;-73
2021/12/21 12:06:53;;;;;;;16.52;4.50;;;;;;;-0.76;85.74;102334.63;5024451;28;20049;-73
2021/12/21 12:09:31;;;;;;;13.00;5.82;;;;;;;-0.71;85.37;102339.59;5024499;28;20041;-73
2021/12/21 12:12:17;;;;;;;15.57;4.00;;;;;;;-0.64;85.14;102338.50;5019212;28;20029;-74